Flight Track Log - Related Links

Times and Time Zones

All times are in EDT time to prevent confusion due to time zone crossing. See the TAM3763 flight status page for this flight to view local times or setup timezone preferences in your user account.

Time Position Orientation Groundspeed Altitude Reporting Facility
EDT Latitude Longitude Course Direction KTS MPH feet Rate Location/Type
Mon 05:33:36 AM -23.6500 -46.6420 163° South 175 201 3,400  Level FlightAware ADS-B
Mon 05:34:10 AM -23.6770 -46.6610 213° Southwest 235 270 4,000 1,174 Climbing FlightAware ADS-B
Mon 05:34:22 AM -23.6800 -46.6750 257° West 258 297 4,300 1,950 Climbing FlightAware ADS-B
Mon 05:34:50 AM -23.6750 -46.7130 278° West 285 328 5,300 3,321 Climbing FlightAware ADS-B
Mon 05:35:18 AM -23.6660 -46.7520 284° West 268 308 7,400 4,091 Climbing FlightAware ADS-B
Mon 05:35:34 AM -23.6610 -46.7720 285° West 268 308 8,300 3,000 Climbing FlightAware ADS-B
Mon 05:36:02 AM -23.6510 -46.8100 286° West 279 321 9,600 2,455 Climbing FlightAware ADS-B
Mon 05:36:40 AM -23.6380 -46.8630 285° West 300 345 11,000 2,819 Climbing FlightAware ADS-B
Mon 05:37:25 AM -23.6200 -46.9310 286° West 302 348 13,500 3,273 Climbing FlightAware ADS-B
Mon 05:38:08 AM -23.6050 -46.9920 285° West 289 333 15,800 2,163 Climbing FlightAware ADS-B
Mon 05:38:51 AM -23.5890 -47.0570 285° West 331 381 16,600 1,341 Climbing FlightAware ADS-B
Mon 05:39:33 AM -23.5710 -47.1280 285° West 353 406 17,700 1,875 Climbing FlightAware ADS-B
Mon 05:40:11 AM -23.5540 -47.1940 286° West 359 413 19,100 2,195 Climbing FlightAware ADS-B
Mon 05:40:55 AM -23.5340 -47.2700 286° West 360 414 20,700 2,000 Climbing FlightAware ADS-B
Mon 05:41:35 AM -23.5170 -47.3410 285° West 367 422 21,900 1,814 Climbing FlightAware ADS-B
Mon 05:42:21 AM -23.5060 -47.4250 278° West 368 423 23,300 1,929 Climbing FlightAware ADS-B
Mon 05:42:59 AM -23.5060 -47.4950 270° West 366 421 24,600 1,786 Climbing FlightAware ADS-B
Mon 05:43:45 AM -23.5050 -47.5830 271° West 372 428 25,800 1,465 Climbing FlightAware ADS-B
Mon 05:44:25 AM -23.5040 -47.6550 271° West 377 434 26,700 1,500 Climbing FlightAware ADS-B
Mon 05:45:09 AM -23.5030 -47.7400 271° West 377 434 27,900 1,735 Climbing FlightAware ADS-B
Mon 05:45:48 AM -23.5020 -47.8120 271° West 374 430 29,100 1,683 Climbing FlightAware ADS-B
Mon 05:46:31 AM -23.5010 -47.8960 271° West 372 428 30,200 1,482 Climbing FlightAware ADS-B
Mon 05:47:13 AM -23.5000 -47.9730 271° West 372 428 31,200 1,256 Climbing FlightAware ADS-B
Mon 05:47:57 AM -23.4990 -48.0540 271° West 368 423 32,000 571 Climbing FlightAware ADS-B
Mon 05:48:37 AM -23.4980 -48.1280 271° West 361 415 32,000  Level FlightAware ADS-B
Mon 05:49:19 AM -23.4970 -48.2060 271° West 371 427 32,000  Level FlightAware ADS-B
Mon 05:49:51 AM -23.4960 -48.2660 271° West 373 429 32,000 -474 Level FlightAware ADS-B
Mon 05:50:35 AM -23.4940 -48.3480 272° West 354 407 31,400 -878 Descending FlightAware ADS-B
Mon 05:51:13 AM -23.4930 -48.4120 271° West 341 392 30,800 -907 Descending FlightAware ADS-B
Mon 05:52:01 AM -23.4920 -48.4930 271° West 349 402 30,100 -944 Descending FlightAware ADS-B
Mon 05:52:42 AM -23.4910 -48.5660 271° West 353 406 29,400 -988 Descending FlightAware ADS-B
Mon 05:53:26 AM -23.4890 -48.6470 272° West 355 409 28,700 -940 Descending FlightAware ADS-B
Mon 05:54:05 AM -23.4880 -48.7160 271° West 358 412 28,100 -532 Descending FlightAware ADS-B
Mon 05:54:45 AM -23.4870 -48.7880 271° West 363 418 28,000 -71 Descending FlightAware ADS-B
Mon 05:55:29 AM -23.4850 -48.8670 272° West 361 415 28,000  Level FlightAware ADS-B
Mon 05:56:12 AM -23.4840 -48.9480 271° West 358 412 28,000  Level FlightAware ADS-B
Mon 05:56:56 AM -23.4820 -49.0270 272° West 359 413 28,000  Level FlightAware ADS-B
Mon 05:57:37 AM -23.4810 -49.0990 271° West 359 413 28,000  Level FlightAware ADS-B
Mon 05:58:14 AM -23.4790 -49.1680 272° West 358 412 28,000  Level FlightAware ADS-B
Mon 05:59:00 AM -23.4730 -49.2500 275° West 359 413 28,000  Level FlightAware ADS-B
Mon 05:59:41 AM -23.4680 -49.3220 274° West 361 415 28,000  Level FlightAware ADS-B
Mon 06:00:26 AM -23.4620 -49.4050 274° West 362 417 28,000  Level FlightAware ADS-B
Mon 06:01:07 AM -23.4570 -49.4780 274° West 361 415 28,000  Level FlightAware ADS-B
Mon 06:01:46 AM -23.4520 -49.5500 274° West 357 411 28,000 -361 Level FlightAware ADS-B
Mon 06:02:30 AM -23.4470 -49.6270 274° West 341 392 27,500 -1,172 Descending FlightAware ADS-B
Mon 06:03:13 AM -23.4420 -49.6990 274° West 333 383 26,300 -1,786 Descending FlightAware ADS-B
Mon 06:03:54 AM -23.4380 -49.7660 274° West 324 373 25,000 -1,778 Descending FlightAware ADS-B
Mon 06:04:34 AM -23.4330 -49.8320 275° West 317 365 23,900 -1,694 Descending FlightAware ADS-B
Mon 06:05:19 AM -23.4290 -49.9020 274° West 311 358 22,600 -1,765 Descending FlightAware ADS-B
Mon 06:05:59 AM -23.4240 -49.9640 275° West 308 354 21,400 -1,786 Descending FlightAware ADS-B
Mon 06:06:43 AM -23.4200 -50.0310 274° West 305 351 20,100 -1,765 Descending FlightAware ADS-B
Mon 06:07:24 AM -23.4150 -50.0960 275° West 305 351 18,900 -1,737 Descending FlightAware ADS-B
Mon 06:07:59 AM -23.4110 -50.1480 275° West 306 352 17,900 -1,658 Descending FlightAware ADS-B
Mon 06:08:40 AM -23.4060 -50.2130 275° West 308 354 16,800 -1,694 Descending FlightAware ADS-B
Mon 06:09:24 AM -23.4010 -50.2820 275° West 309 356 15,500 -1,786 Descending FlightAware ADS-B
Mon 06:10:04 AM -23.3970 -50.3420 274° West 309 356 14,300 -1,704 Descending FlightAware ADS-B
Mon 06:10:45 AM -23.3930 -50.4060 274° West 309 356 13,200 -1,694 Descending FlightAware ADS-B
Mon 06:11:29 AM -23.3880 -50.4750 275° West 307 353 11,900 -1,714 Descending FlightAware ADS-B
Mon 06:12:09 AM -23.3830 -50.5360 275° West 303 349 10,800 -1,500 Descending FlightAware ADS-B
Mon 06:12:49 AM -23.3790 -50.5970 274° West 291 335 9,900 -1,200 Descending FlightAware ADS-B
Mon 06:13:19 AM -23.3760 -50.6380 275° West 274 315 9,400 -1,300 Descending FlightAware ADS-B
Mon 06:13:49 AM -23.3730 -50.6800 274° West 271 312 8,600 -1,655 Descending FlightAware ADS-B
Mon 06:14:17 AM -23.3700 -50.7170 275° West 269 310 7,800 -1,714 Descending FlightAware ADS-B
Mon 06:14:45 AM -23.3670 -50.7550 275° West 269 310 7,000 -1,765 Descending FlightAware ADS-B
Mon 06:14:51 AM -23.3660 -50.7630 278° West 270 311 6,800 -1,765 Descending FlightAware ADS-B
Mon 06:15:19 AM -23.3630 -50.8010 275° West 272 313 6,000 -1,345 Descending FlightAware ADS-B
Mon 06:15:49 AM -23.3600 -50.8430 274° West 273 314 5,500 -1,138 Descending FlightAware ADS-B
Mon 06:16:17 AM -23.3570 -50.8810 275° West 273 314 4,900 -1,286 Descending FlightAware ADS-B
Mon 06:16:45 AM -23.3550 -50.9190 273° West 274 315 4,300 -1,179 Descending FlightAware ADS-B
Mon 06:17:13 AM -23.3490 -50.9580 280° West 274 315 3,800 -1,071 Descending FlightAware ADS-B
Mon 06:17:41 AM -23.3430 -50.9970 280° West 282 325 3,300 -517 Descending FlightAware ADS-B
Mon 06:18:11 AM -23.3330 -51.0350 286° West 251 289 3,300  Level FlightAware ADS-B
Mon 06:18:39 AM -23.3220 -51.0670 291° West 233 268 3,300  Level FlightAware ADS-B
Mon 06:19:03 AM -23.3140 -51.0920 289° West 216 249 3,300  Level FlightAware ADS-B
Mon 06:19:30 AM -23.3050 -51.1180 291° West 211 243 3,300  Level FlightAware ADS-B
Mon 06:20:00 AM -23.2960 -51.1470 289° West 209 241 3,300  Level FlightAware ADS-B
Mon 06:20:30 AM -23.2860 -51.1780 289° West 210 242 3,300 -105 Level FlightAware ADS-B
Mon 06:20:57 AM -23.2970 -51.2010 242° Southwest 182 209 3,200 -507 Descending FlightAware ADS-B
Mon 06:21:41 AM -23.3160 -51.1840 141° Southeast 127 146 2,700 -750 Descending FlightAware ADS-B
Mon 06:22:09 AM -23.3210 -51.1670 108° East 128 147 2,300 -750 Descending FlightAware ADS-B
Mon 06:22:37 AM -23.3270 -51.1500 111° Southeast 128 147 2,000 -643 Descending FlightAware ADS-B
Mon 06:23:05 AM -23.3330 -51.1330 111° Southeast 126 145 1,700 -643 Descending FlightAware ADS-B
Mon 06:23:17 AM -23.3340 -51.1280 102° East 62 71 -8,500 Descending FlightAware ADS-B
Mon 06:23:41 AM -23.3350 -51.1250 110° East 33 38  Level FlightAware ADS-B
Mon 06:24:15 AM -23.3340 -51.1260 317° Northwest 30 35  Level FlightAware ADS-B
Mon 06:24:25 AM -23.3340 -51.1270 270° West 18 21  Level FlightAware ADS-B
Mon 06:24:55 AM -23.3330 -51.1300 290° West 23 26  Level FlightAware ADS-B
Mon 06:25:23 AM -23.3320 -51.1330 290° West 17 20  Level FlightAware ADS-B
Mon 06:25:39 AM -23.3310 -51.1340 317° Northwest 17 20  Level FlightAware ADS-B
Mon 06:26:08 AM -23.3310 -51.1360 270° West 17 20  Level FlightAware ADS-B
Mon 06:26:35 AM -23.3300 -51.1380 299° West 27 31  Level FlightAware ADS-B
Mon 06:26:55 AM -23.3290 -51.1380 360° North 11 13  Level FlightAware ADS-B
Mon 06:29:00 AM -23.3336 -51.1301 122° Southeast  Level Estimated
Mon 06:30:00 AM -23.3336 -51.1301 340° North  Level Estimated
Mon 06:31:00 AM -23.3336 -51.1301 200° South  Level Estimated
Mon 06:32:00 AM -23.3336 -51.1301 340° North  Level Estimated
Mon 06:33:00 AM -23.3336 -51.1301 200° South  Level Estimated
Mon 06:34:00 AM -23.3336 -51.1301 340° North  Level Estimated
Mon 06:35:00 AM -23.3336 -51.1301 200° South  Level Estimated
Mon 06:36:00 AM -23.3336 -51.1301 340° North  Level Estimated
Mon 06:37:00 AM -23.3336 -51.1301 200° South  Level Estimated
Mon 06:38:00 AM -23.3336 -51.1301 340° North  Level Estimated
Mon 06:39:00 AM -23.3336 -51.1301 200° South  Level Estimated
Mon 06:40:00 AM -23.3336 -51.1301 340° North  Level Estimated
Mon 06:41:00 AM -23.3336 -51.1301 200° South  Level Estimated

Login

Don't have an account? Register now (free) for customized features, flight alerts, and more!